SXS2NA LTBJ-LTCC
Flight info
| Callsign | SXS2NA |
|---|---|
| Flight time | 1h 28m |
| Altitude | 37000 |
| Route | KULAR UT54 HAY UW705 GEM UW73 MOVUL |
| Aircraft | B38M/M-SADE2E3GIJ4J7RW/LB1D1 |
Departure
| Time | 2026-05-05 13:25 |
|---|---|
| Airport | Adnan Menderes International Airport (LTBJ) |
Arrival
| Time | 2026-05-05 14:54 |
|---|---|
| Airport | Diyarbakır Airport (LTCC) |
| Time | Latitude | Longitude | Altitude | Speed | Heading |
|---|---|---|---|---|---|
| 2026-05-05 13:03 | 38.29477 | 27.15180 | 408 ft | 0 kts | 76° |
| 2026-05-05 13:16 | 38.29474 | 27.15160 | 408 ft | 2 kts | 78° |
| 2026-05-05 13:17 | 38.29470 | 27.15139 | 408 ft | 2 kts | 77° |
| 2026-05-05 13:17 | 38.29468 | 27.15115 | 408 ft | 2 kts | 105° |
| 2026-05-05 13:17 | 38.29477 | 27.15095 | 408 ft | 2 kts | 135° |
| 2026-05-05 13:17 | 38.29491 | 27.15083 | 408 ft | 0 kts | 163° |
| 2026-05-05 13:18 | 38.29499 | 27.15080 | 408 ft | 0 kts | 167° |
| 2026-05-05 13:19 | 38.29498 | 27.15081 | 408 ft | 0 kts | 165° |
| 2026-05-05 13:19 | 38.29474 | 27.15090 | 408 ft | 5 kts | 163° |
| 2026-05-05 13:20 | 38.29427 | 27.15105 | 408 ft | 7 kts | 167° |
| 2026-05-05 13:20 | 38.29359 | 27.15125 | 408 ft | 10 kts | 167° |
| 2026-05-05 13:20 | 38.29274 | 27.15151 | 409 ft | 12 kts | 166° |
| 2026-05-05 13:20 | 38.29177 | 27.15180 | 411 ft | 13 kts | 167° |
| 2026-05-05 13:21 | 38.29067 | 27.15213 | 411 ft | 13 kts | 166° |
| 2026-05-05 13:21 | 38.29006 | 27.15282 | 411 ft | 12 kts | 128° |
| 2026-05-05 13:21 | 38.28910 | 27.15327 | 411 ft | 14 kts | 167° |
| 2026-05-05 13:21 | 38.28785 | 27.15365 | 410 ft | 18 kts | 166° |
| 2026-05-05 13:22 | 38.28630 | 27.15412 | 410 ft | 20 kts | 167° |
| 2026-05-05 13:22 | 38.28474 | 27.15459 | 407 ft | 20 kts | 166° |
| 2026-05-05 13:22 | 38.28319 | 27.15506 | 404 ft | 20 kts | 166° |
| 2026-05-05 13:22 | 38.28157 | 27.15554 | 398 ft | 21 kts | 166° |
| 2026-05-05 13:23 | 38.27987 | 27.15605 | 393 ft | 22 kts | 167° |
| 2026-05-05 13:23 | 38.27826 | 27.15653 | 388 ft | 18 kts | 166° |
| 2026-05-05 13:23 | 38.27765 | 27.15771 | 385 ft | 16 kts | 75° |
| 2026-05-05 13:23 | 38.27796 | 27.15921 | 385 ft | 14 kts | 75° |
| 2026-05-05 13:24 | 38.27822 | 27.16054 | 386 ft | 11 kts | 73° |
| 2026-05-05 13:24 | 38.27889 | 27.16098 | 389 ft | 13 kts | 356° |
| 2026-05-05 13:24 | 38.28158 | 27.16021 | 395 ft | 72 kts | 347° |
| 2026-05-05 13:24 | 38.28894 | 27.15801 | 412 ft | 132 kts | 347° |
| 2026-05-05 13:25 | 38.30037 | 27.15459 | 495 ft | 174 kts | 347° |
| 2026-05-05 13:25 | 38.31305 | 27.15054 | 1379 ft | 165 kts | 347° |
| 2026-05-05 13:25 | 38.32622 | 27.14667 | 1943 ft | 182 kts | 349° |
| 2026-05-05 13:25 | 38.34034 | 27.14241 | 2571 ft | 193 kts | 345° |
| 2026-05-05 13:26 | 38.35572 | 27.13765 | 3133 ft | 212 kts | 347° |
| 2026-05-05 13:26 | 38.37225 | 27.13330 | 3787 ft | 227 kts | 354° |
| 2026-05-05 13:26 | 38.38969 | 27.13548 | 4503 ft | 240 kts | 21° |
| 2026-05-05 13:26 | 38.40501 | 27.14962 | 5209 ft | 257 kts | 48° |
| 2026-05-05 13:27 | 38.41680 | 27.17029 | 6105 ft | 263 kts | 53° |
| 2026-05-05 13:27 | 38.42826 | 27.19127 | 7061 ft | 265 kts | 51° |
| 2026-05-05 13:27 | 38.44002 | 27.21266 | 7825 ft | 270 kts | 54° |
| 2026-05-05 13:27 | 38.44911 | 27.23694 | 8170 ft | 274 kts | 69° |
| 2026-05-05 13:28 | 38.45384 | 27.26312 | 8667 ft | 276 kts | 75° |
| 2026-05-05 13:28 | 38.45793 | 27.28998 | 9258 ft | 277 kts | 73° |
| 2026-05-05 13:28 | 38.46233 | 27.31619 | 9926 ft | 279 kts | 72° |
| 2026-05-05 13:28 | 38.46717 | 27.34283 | 10481 ft | 292 kts | 72° |
| 2026-05-05 13:29 | 38.47162 | 27.37156 | 10966 ft | 309 kts | 76° |
| 2026-05-05 13:29 | 38.47519 | 27.40278 | 11456 ft | 326 kts | 78° |
| 2026-05-05 13:29 | 38.47850 | 27.43615 | 11894 ft | 343 kts | 78° |
| 2026-05-05 13:29 | 38.48189 | 27.47055 | 12294 ft | 359 kts | 78° |
| 2026-05-05 13:30 | 38.48548 | 27.50590 | 12642 ft | 375 kts | 78° |
| 2026-05-05 13:30 | 38.48978 | 27.54360 | 12973 ft | 389 kts | 77° |
| 2026-05-05 13:30 | 38.49519 | 27.58299 | 13386 ft | 401 kts | 76° |
| 2026-05-05 13:30 | 38.50101 | 27.62281 | 14024 ft | 405 kts | 75° |
| 2026-05-05 13:31 | 38.50686 | 27.66287 | 14613 ft | 411 kts | 76° |
| 2026-05-05 13:31 | 38.51268 | 27.70348 | 15239 ft | 416 kts | 76° |
| 2026-05-05 13:31 | 38.51847 | 27.74449 | 15840 ft | 421 kts | 76° |
| 2026-05-05 13:31 | 38.52426 | 27.78607 | 16454 ft | 426 kts | 76° |
| 2026-05-05 13:32 | 38.53017 | 27.82884 | 17060 ft | 430 kts | 76° |
| 2026-05-05 13:32 | 38.53598 | 27.87104 | 17632 ft | 435 kts | 76° |
| 2026-05-05 13:32 | 38.54198 | 27.91474 | 18245 ft | 439 kts | 76° |
| 2026-05-05 13:32 | 38.54789 | 27.95792 | 18813 ft | 444 kts | 76° |
| 2026-05-05 13:33 | 38.55386 | 28.00161 | 19349 ft | 449 kts | 77° |
| 2026-05-05 13:33 | 38.55998 | 28.04648 | 19872 ft | 454 kts | 77° |
| 2026-05-05 13:33 | 38.56612 | 28.09161 | 20432 ft | 458 kts | 77° |
| 2026-05-05 13:33 | 38.57229 | 28.13705 | 20956 ft | 462 kts | 77° |
| 2026-05-05 13:34 | 38.57857 | 28.18351 | 21433 ft | 468 kts | 77° |
| 2026-05-05 13:34 | 38.58389 | 28.22951 | 21962 ft | 472 kts | 81° |
| 2026-05-05 13:34 | 38.58662 | 28.27629 | 22432 ft | 478 kts | 85° |
| 2026-05-05 13:34 | 38.58735 | 28.32380 | 22905 ft | 483 kts | 87° |
| 2026-05-05 13:35 | 38.58701 | 28.37198 | 23361 ft | 488 kts | 88° |
| 2026-05-05 13:35 | 38.58619 | 28.42055 | 23829 ft | 492 kts | 89° |
| 2026-05-05 13:35 | 38.58524 | 28.47023 | 24311 ft | 495 kts | 89° |
| 2026-05-05 13:35 | 38.58437 | 28.51694 | 24785 ft | 498 kts | 89° |
| 2026-05-05 13:36 | 38.58352 | 28.56539 | 25261 ft | 500 kts | 88° |
| 2026-05-05 13:36 | 38.58317 | 28.61295 | 25961 ft | 496 kts | 86° |
| 2026-05-05 13:36 | 38.58494 | 28.66145 | 26633 ft | 492 kts | 83° |
| 2026-05-05 13:36 | 38.58868 | 28.70996 | 27169 ft | 492 kts | 81° |
| 2026-05-05 13:37 | 38.59306 | 28.75427 | 27631 ft | 492 kts | 79° |
| 2026-05-05 13:37 | 38.59792 | 28.79934 | 28209 ft | 490 kts | 79° |
| 2026-05-05 13:37 | 38.60286 | 28.84420 | 28707 ft | 489 kts | 79° |
| 2026-05-05 13:37 | 38.60792 | 28.89050 | 29199 ft | 489 kts | 79° |
| 2026-05-05 13:38 | 38.61293 | 28.93746 | 29725 ft | 488 kts | 79° |
| 2026-05-05 13:38 | 38.61794 | 28.98543 | 30222 ft | 487 kts | 79° |
| 2026-05-05 13:38 | 38.62267 | 29.03180 | 30723 ft | 485 kts | 79° |
| 2026-05-05 13:38 | 38.62726 | 29.07741 | 31143 ft | 484 kts | 79° |
| 2026-05-05 13:39 | 38.63186 | 29.12368 | 31627 ft | 482 kts | 79° |
| 2026-05-05 13:39 | 38.63646 | 29.17025 | 32064 ft | 481 kts | 79° |
| 2026-05-05 13:39 | 38.64090 | 29.21544 | 32525 ft | 478 kts | 79° |
| 2026-05-05 13:39 | 38.64532 | 29.26068 | 32919 ft | 477 kts | 79° |
| 2026-05-05 13:40 | 38.64973 | 29.30594 | 33298 ft | 476 kts | 79° |
| 2026-05-05 13:40 | 38.65417 | 29.35157 | 33687 ft | 475 kts | 79° |
| 2026-05-05 13:40 | 38.65859 | 29.39729 | 34067 ft | 474 kts | 79° |
| 2026-05-05 13:40 | 38.66305 | 29.44367 | 34469 ft | 472 kts | 79° |
| 2026-05-05 13:41 | 38.66754 | 29.48940 | 34728 ft | 471 kts | 78° |
| 2026-05-05 13:41 | 38.67265 | 29.53426 | 34980 ft | 471 kts | 77° |
| 2026-05-05 13:41 | 38.67831 | 29.57896 | 35225 ft | 470 kts | 76° |
| 2026-05-05 13:41 | 38.68414 | 29.62299 | 35447 ft | 470 kts | 76° |
| 2026-05-05 13:42 | 38.69006 | 29.66740 | 35660 ft | 470 kts | 77° |
| 2026-05-05 13:42 | 38.69601 | 29.71246 | 35853 ft | 470 kts | 77° |
| 2026-05-05 13:42 | 38.70181 | 29.75705 | 36016 ft | 470 kts | 77° |
| 2026-05-05 13:42 | 38.70748 | 29.80119 | 36288 ft | 469 kts | 77° |
| 2026-05-05 13:43 | 38.71304 | 29.84496 | 36537 ft | 469 kts | 77° |
| 2026-05-05 13:43 | 38.71847 | 29.88824 | 36798 ft | 469 kts | 77° |
| 2026-05-05 13:43 | 38.72401 | 29.93251 | 36984 ft | 469 kts | 77° |
| 2026-05-05 13:43 | 38.72953 | 29.97687 | 37005 ft | 472 kts | 77° |
| 2026-05-05 13:44 | 38.74078 | 30.06558 | 37001 ft | 469 kts | 76° |
| 2026-05-05 13:44 | 38.75226 | 30.15133 | 37019 ft | 468 kts | 76° |
| 2026-05-05 13:45 | 38.76386 | 30.23787 | 37035 ft | 468 kts | 76° |
| 2026-05-05 13:45 | 38.77607 | 30.33000 | 37026 ft | 469 kts | 76° |
| 2026-05-05 13:46 | 38.78804 | 30.42169 | 37015 ft | 467 kts | 76° |
| 2026-05-05 13:46 | 38.80033 | 30.51292 | 37017 ft | 467 kts | 74° |
| 2026-05-05 13:47 | 38.82054 | 30.60169 | 37023 ft | 460 kts | 64° |
| 2026-05-05 13:47 | 38.84861 | 30.68651 | 37018 ft | 459 kts | 62° |
| 2026-05-05 13:48 | 38.87780 | 30.77052 | 37017 ft | 459 kts | 62° |
| 2026-05-05 13:48 | 38.90557 | 30.85224 | 37014 ft | 459 kts | 62° |
| 2026-05-05 13:49 | 38.93353 | 30.93607 | 37018 ft | 459 kts | 62° |
| 2026-05-05 13:49 | 38.96024 | 31.01692 | 37015 ft | 458 kts | 62° |
| 2026-05-05 13:50 | 38.98758 | 31.10017 | 37017 ft | 458 kts | 63° |
| 2026-05-05 13:50 | 39.01559 | 31.18573 | 37021 ft | 457 kts | 63° |
| 2026-05-05 13:51 | 39.04227 | 31.26734 | 37033 ft | 455 kts | 62° |
| 2026-05-05 13:51 | 39.06807 | 31.34659 | 37118 ft | 454 kts | 62° |
| 2026-05-05 13:52 | 39.09472 | 31.42853 | 37011 ft | 456 kts | 63° |
| 2026-05-05 13:52 | 39.12085 | 31.50927 | 37012 ft | 456 kts | 63° |
| 2026-05-05 13:53 | 39.14657 | 31.58899 | 37005 ft | 454 kts | 63° |
| 2026-05-05 13:53 | 39.17297 | 31.67104 | 37009 ft | 454 kts | 63° |
| 2026-05-05 13:54 | 39.19962 | 31.75400 | 36998 ft | 454 kts | 63° |
| 2026-05-05 13:54 | 39.22526 | 31.83410 | 36992 ft | 454 kts | 63° |
| 2026-05-05 13:55 | 39.25182 | 31.91746 | 36989 ft | 455 kts | 63° |
| 2026-05-05 13:55 | 39.27764 | 31.99881 | 36985 ft | 454 kts | 63° |
| 2026-05-05 13:56 | 39.30398 | 32.08196 | 36990 ft | 453 kts | 63° |
| 2026-05-05 13:56 | 39.33023 | 32.16508 | 36981 ft | 454 kts | 63° |
| 2026-05-05 13:57 | 39.35701 | 32.25016 | 36971 ft | 454 kts | 63° |
| 2026-05-05 13:57 | 39.38352 | 32.33471 | 36975 ft | 454 kts | 63° |
| 2026-05-05 13:58 | 39.40924 | 32.41764 | 36956 ft | 454 kts | 64° |
| 2026-05-05 13:58 | 39.43029 | 32.50300 | 36951 ft | 461 kts | 76° |
| 2026-05-05 13:59 | 39.43324 | 32.58957 | 36949 ft | 468 kts | 89° |
| 2026-05-05 13:59 | 39.43123 | 32.63184 | 36946 ft | 469 kts | 90° |
| 2026-05-05 14:00 | 39.42312 | 32.74919 | 36947 ft | 470 kts | 92° |
| 2026-05-05 14:00 | 39.41602 | 32.85096 | 36957 ft | 470 kts | 91° |
| 2026-05-05 14:01 | 39.41018 | 32.93583 | 36952 ft | 471 kts | 92° |
| 2026-05-05 14:01 | 39.40424 | 33.02088 | 36958 ft | 471 kts | 92° |
| 2026-05-05 14:02 | 39.39794 | 33.11000 | 36958 ft | 471 kts | 92° |
| 2026-05-05 14:02 | 39.39156 | 33.19925 | 36959 ft | 471 kts | 92° |
| 2026-05-05 14:03 | 39.38509 | 33.28847 | 36964 ft | 463 kts | 92° |
| 2026-05-05 14:03 | 39.37880 | 33.37492 | 36956 ft | 471 kts | 92° |
| 2026-05-05 14:04 | 39.37219 | 33.46541 | 36945 ft | 472 kts | 92° |
| 2026-05-05 14:04 | 39.36557 | 33.55410 | 36948 ft | 470 kts | 92° |
| 2026-05-05 14:05 | 39.35876 | 33.64455 | 36934 ft | 471 kts | 92° |
| 2026-05-05 14:05 | 39.35191 | 33.73474 | 36946 ft | 471 kts | 93° |
| 2026-05-05 14:06 | 39.34512 | 33.82318 | 36932 ft | 471 kts | 93° |
| 2026-05-05 14:06 | 39.33815 | 33.91328 | 36926 ft | 471 kts | 93° |
| 2026-05-05 14:07 | 39.33114 | 34.00262 | 36924 ft | 472 kts | 94° |
| 2026-05-05 14:07 | 39.32354 | 34.09879 | 36935 ft | 472 kts | 94° |
| 2026-05-05 14:08 | 39.31593 | 34.19382 | 36934 ft | 471 kts | 94° |
| 2026-05-05 14:08 | 39.30816 | 34.28995 | 36939 ft | 470 kts | 94° |
| 2026-05-05 14:09 | 39.30040 | 34.38525 | 36951 ft | 471 kts | 94° |
| 2026-05-05 14:09 | 39.29252 | 34.48094 | 36962 ft | 471 kts | 94° |
| 2026-05-05 14:10 | 39.28457 | 34.57629 | 36954 ft | 471 kts | 94° |
| 2026-05-05 14:10 | 39.27646 | 34.67233 | 36960 ft | 471 kts | 95° |
| 2026-05-05 14:11 | 39.26841 | 34.76706 | 36965 ft | 471 kts | 95° |
| 2026-05-05 14:11 | 39.26020 | 34.86277 | 36968 ft | 470 kts | 95° |
| 2026-05-05 14:12 | 39.25198 | 34.95793 | 36973 ft | 471 kts | 95° |
| 2026-05-05 14:12 | 39.24362 | 35.05337 | 36968 ft | 470 kts | 95° |
| 2026-05-05 14:13 | 39.23515 | 35.14943 | 36963 ft | 471 kts | 96° |
| 2026-05-05 14:13 | 39.22657 | 35.24555 | 36964 ft | 471 kts | 96° |
| 2026-05-05 14:14 | 39.21794 | 35.34151 | 36959 ft | 471 kts | 96° |
| 2026-05-05 14:14 | 39.20934 | 35.43626 | 36954 ft | 471 kts | 96° |
| 2026-05-05 14:15 | 39.20047 | 35.53300 | 36947 ft | 471 kts | 96° |
| 2026-05-05 14:15 | 39.19149 | 35.63020 | 36929 ft | 471 kts | 96° |
| 2026-05-05 14:16 | 39.18272 | 35.72413 | 36906 ft | 471 kts | 97° |
| 2026-05-05 14:16 | 39.17409 | 35.81580 | 36905 ft | 469 kts | 97° |
| 2026-05-05 14:17 | 39.16548 | 35.90632 | 36923 ft | 470 kts | 97° |
| 2026-05-05 14:17 | 39.15595 | 35.99744 | 36938 ft | 460 kts | 100° |
| 2026-05-05 14:18 | 39.13858 | 36.08046 | 36941 ft | 466 kts | 110° |
| 2026-05-05 14:18 | 39.11173 | 36.16608 | 36924 ft | 471 kts | 114° |
| 2026-05-05 14:19 | 39.08328 | 36.25138 | 36907 ft | 468 kts | 114° |
| 2026-05-05 14:19 | 39.05529 | 36.33583 | 36902 ft | 469 kts | 113° |
| 2026-05-05 14:20 | 39.02756 | 36.42051 | 36909 ft | 470 kts | 113° |
| 2026-05-05 14:20 | 39.00013 | 36.50463 | 36913 ft | 468 kts | 113° |
| 2026-05-05 14:21 | 38.97332 | 36.58682 | 36908 ft | 469 kts | 113° |
| 2026-05-05 14:21 | 38.94740 | 36.66618 | 36901 ft | 469 kts | 114° |
| 2026-05-05 14:22 | 38.92195 | 36.74390 | 36878 ft | 468 kts | 114° |
| 2026-05-05 14:22 | 38.89577 | 36.82363 | 36871 ft | 467 kts | 114° |
| 2026-05-05 14:23 | 38.86868 | 36.90595 | 36876 ft | 468 kts | 114° |
| 2026-05-05 14:23 | 38.84137 | 36.98862 | 36887 ft | 466 kts | 114° |
| 2026-05-05 14:24 | 38.81460 | 37.06938 | 36902 ft | 467 kts | 114° |
| 2026-05-05 14:24 | 38.78769 | 37.15042 | 36917 ft | 467 kts | 114° |
| 2026-05-05 14:25 | 38.76105 | 37.23036 | 36909 ft | 468 kts | 114° |
| 2026-05-05 14:25 | 38.73453 | 37.30976 | 36909 ft | 468 kts | 114° |
| 2026-05-05 14:26 | 38.70766 | 37.38999 | 36913 ft | 468 kts | 115° |
| 2026-05-05 14:26 | 38.68106 | 37.46925 | 36923 ft | 468 kts | 115° |
| 2026-05-05 14:27 | 38.65492 | 37.54685 | 36929 ft | 468 kts | 115° |
| 2026-05-05 14:27 | 38.62822 | 37.62581 | 36935 ft | 468 kts | 115° |
| 2026-05-05 14:28 | 38.60103 | 37.70607 | 36941 ft | 469 kts | 116° |
| 2026-05-05 14:28 | 38.57362 | 37.78677 | 36945 ft | 469 kts | 116° |
| 2026-05-05 14:29 | 38.54710 | 37.86465 | 36947 ft | 469 kts | 116° |
| 2026-05-05 14:29 | 38.52065 | 37.94210 | 36941 ft | 469 kts | 116° |
| 2026-05-05 14:30 | 38.49408 | 38.01967 | 36936 ft | 468 kts | 116° |
| 2026-05-05 14:30 | 38.46764 | 38.09666 | 36927 ft | 468 kts | 116° |
| 2026-05-05 14:31 | 38.44300 | 38.17476 | 36929 ft | 470 kts | 112° |
| 2026-05-05 14:31 | 38.42173 | 38.25483 | 36731 ft | 473 kts | 110° |
| 2026-05-05 14:32 | 38.41134 | 38.29518 | 36513 ft | 471 kts | 110° |
| 2026-05-05 14:32 | 38.40091 | 38.33541 | 36296 ft | 468 kts | 111° |
| 2026-05-05 14:32 | 38.39041 | 38.37539 | 35960 ft | 469 kts | 111° |
| 2026-05-05 14:32 | 38.37969 | 38.41565 | 35443 ft | 470 kts | 111° |
| 2026-05-05 14:33 | 38.36874 | 38.45631 | 34918 ft | 467 kts | 111° |
| 2026-05-05 14:33 | 38.35748 | 38.49781 | 34388 ft | 464 kts | 111° |
| 2026-05-05 14:33 | 38.34633 | 38.53871 | 33838 ft | 462 kts | 111° |
| 2026-05-05 14:33 | 38.33520 | 38.57935 | 33330 ft | 462 kts | 111° |
| 2026-05-05 14:34 | 38.32396 | 38.62027 | 32849 ft | 463 kts | 112° |
| 2026-05-05 14:34 | 38.31261 | 38.66150 | 32364 ft | 463 kts | 112° |
| 2026-05-05 14:34 | 38.30087 | 38.70407 | 31854 ft | 462 kts | 113° |
| 2026-05-05 14:34 | 38.28986 | 38.74391 | 31379 ft | 460 kts | 113° |
| 2026-05-05 14:35 | 38.27881 | 38.78384 | 30909 ft | 460 kts | 113° |
| 2026-05-05 14:35 | 38.26786 | 38.82334 | 30436 ft | 460 kts | 114° |
| 2026-05-05 14:35 | 38.25707 | 38.86219 | 29866 ft | 460 kts | 114° |
| 2026-05-05 14:35 | 38.24633 | 38.90081 | 29292 ft | 460 kts | 113° |
| 2026-05-05 14:36 | 38.23563 | 38.93923 | 28689 ft | 460 kts | 113° |
| 2026-05-05 14:36 | 38.22445 | 38.97937 | 28059 ft | 460 kts | 113° |
| 2026-05-05 14:36 | 38.21378 | 39.01760 | 27446 ft | 461 kts | 113° |
| 2026-05-05 14:36 | 38.20295 | 39.05637 | 26843 ft | 462 kts | 113° |
| 2026-05-05 14:37 | 38.19149 | 39.09741 | 26199 ft | 461 kts | 112° |
| 2026-05-05 14:37 | 38.17947 | 39.14036 | 25511 ft | 460 kts | 112° |
| 2026-05-05 14:37 | 38.16829 | 39.18030 | 24870 ft | 460 kts | 112° |
| 2026-05-05 14:37 | 38.15714 | 39.22011 | 24218 ft | 455 kts | 112° |
| 2026-05-05 14:38 | 38.14655 | 39.25784 | 23576 ft | 449 kts | 112° |
| 2026-05-05 14:38 | 38.13580 | 39.29615 | 22902 ft | 445 kts | 112° |
| 2026-05-05 14:38 | 38.12556 | 39.33256 | 22251 ft | 442 kts | 112° |
| 2026-05-05 14:38 | 38.11520 | 39.36936 | 21599 ft | 438 kts | 111° |
| 2026-05-05 14:39 | 38.10498 | 39.40556 | 20958 ft | 433 kts | 111° |
| 2026-05-05 14:39 | 38.09495 | 39.44114 | 20305 ft | 428 kts | 111° |
| 2026-05-05 14:39 | 38.08484 | 39.47688 | 19662 ft | 424 kts | 111° |
| 2026-05-05 14:39 | 38.07497 | 39.51167 | 19033 ft | 418 kts | 111° |
| 2026-05-05 14:40 | 38.06520 | 39.54607 | 18423 ft | 411 kts | 111° |
| 2026-05-05 14:40 | 38.05562 | 39.57978 | 17913 ft | 402 kts | 111° |
| 2026-05-05 14:40 | 38.04622 | 39.61288 | 17406 ft | 394 kts | 111° |
| 2026-05-05 14:40 | 38.03708 | 39.64500 | 16899 ft | 386 kts | 111° |
| 2026-05-05 14:41 | 38.02797 | 39.67690 | 16387 ft | 379 kts | 112° |
| 2026-05-05 14:41 | 38.01908 | 39.70797 | 15887 ft | 373 kts | 111° |
| 2026-05-05 14:41 | 38.01028 | 39.73872 | 15405 ft | 366 kts | 111° |
| 2026-05-05 14:41 | 38.00162 | 39.76897 | 14935 ft | 359 kts | 111° |
| 2026-05-05 14:42 | 37.99305 | 39.79884 | 14482 ft | 352 kts | 111° |
| 2026-05-05 14:42 | 37.98477 | 39.82760 | 14052 ft | 346 kts | 111° |
| 2026-05-05 14:42 | 37.97648 | 39.85624 | 13646 ft | 338 kts | 111° |
| 2026-05-05 14:42 | 37.96834 | 39.88409 | 13269 ft | 331 kts | 111° |
| 2026-05-05 14:43 | 37.96024 | 39.91167 | 12897 ft | 324 kts | 112° |
| 2026-05-05 14:43 | 37.95197 | 39.93975 | 12526 ft | 317 kts | 112° |
| 2026-05-05 14:43 | 37.94440 | 39.96557 | 12191 ft | 311 kts | 111° |
| 2026-05-05 14:43 | 37.93693 | 39.99118 | 11885 ft | 304 kts | 111° |
| 2026-05-05 14:44 | 37.92977 | 40.01585 | 11581 ft | 298 kts | 111° |
| 2026-05-05 14:44 | 37.92281 | 40.04017 | 11207 ft | 294 kts | 111° |
| 2026-05-05 14:44 | 37.91593 | 40.06440 | 10798 ft | 291 kts | 111° |
| 2026-05-05 14:44 | 37.90892 | 40.08876 | 10465 ft | 286 kts | 111° |
| 2026-05-05 14:45 | 37.90206 | 40.11224 | 10096 ft | 283 kts | 111° |
| 2026-05-05 14:45 | 37.89525 | 40.13539 | 9715 ft | 276 kts | 111° |
| 2026-05-05 14:45 | 37.88845 | 40.15851 | 9332 ft | 270 kts | 111° |
| 2026-05-05 14:45 | 37.88195 | 40.18060 | 8971 ft | 266 kts | 111° |
| 2026-05-05 14:46 | 37.87561 | 40.20269 | 8601 ft | 265 kts | 108° |
| 2026-05-05 14:46 | 37.87170 | 40.22588 | 8206 ft | 264 kts | 94° |
| 2026-05-05 14:46 | 37.87492 | 40.24851 | 7844 ft | 261 kts | 64° |
| 2026-05-05 14:46 | 37.88591 | 40.26623 | 7589 ft | 259 kts | 42° |
| 2026-05-05 14:47 | 37.90176 | 40.27950 | 7274 ft | 258 kts | 27° |
| 2026-05-05 14:47 | 37.91882 | 40.28684 | 6984 ft | 256 kts | 5° |
| 2026-05-05 14:47 | 37.93670 | 40.28421 | 6769 ft | 250 kts | 340° |
| 2026-05-05 14:47 | 37.95359 | 40.27573 | 6591 ft | 242 kts | 337° |
| 2026-05-05 14:48 | 37.96931 | 40.26795 | 6422 ft | 236 kts | 339° |
| 2026-05-05 14:48 | 37.98493 | 40.26090 | 6245 ft | 228 kts | 340° |
| 2026-05-05 14:48 | 37.99995 | 40.25436 | 6068 ft | 222 kts | 340° |
| 2026-05-05 14:48 | 38.01445 | 40.24803 | 5897 ft | 218 kts | 340° |
| 2026-05-05 14:49 | 38.02909 | 40.24120 | 5732 ft | 211 kts | 334° |
| 2026-05-05 14:49 | 38.04083 | 40.23098 | 5517 ft | 201 kts | 306° |
| 2026-05-05 14:49 | 38.04624 | 40.21513 | 5274 ft | 192 kts | 276° |
| 2026-05-05 14:49 | 38.04641 | 40.19841 | 5063 ft | 184 kts | 261° |
| 2026-05-05 14:50 | 38.04319 | 40.18265 | 4866 ft | 182 kts | 250° |
| 2026-05-05 14:50 | 38.03831 | 40.16767 | 4691 ft | 181 kts | 240° |
| 2026-05-05 14:50 | 38.03072 | 40.15463 | 4540 ft | 181 kts | 226° |
| 2026-05-05 14:50 | 38.02049 | 40.14467 | 4386 ft | 176 kts | 211° |
| 2026-05-05 14:51 | 38.00906 | 40.13916 | 4242 ft | 172 kts | 194° |
| 2026-05-05 14:51 | 37.99678 | 40.13811 | 4090 ft | 174 kts | 178° |
| 2026-05-05 14:51 | 37.98493 | 40.14199 | 3986 ft | 173 kts | 161° |
| 2026-05-05 14:51 | 37.97536 | 40.14965 | 3785 ft | 164 kts | 142° |
| 2026-05-05 14:52 | 37.96705 | 40.15976 | 3457 ft | 167 kts | 139° |
| 2026-05-05 14:52 | 37.95888 | 40.17038 | 3201 ft | 170 kts | 138° |
| 2026-05-05 14:52 | 37.95016 | 40.18055 | 3009 ft | 168 kts | 153° |
| 2026-05-05 14:52 | 37.93955 | 40.18574 | 2894 ft | 160 kts | 173° |
| 2026-05-05 14:53 | 37.92764 | 40.18796 | 2623 ft | 163 kts | 174° |
| 2026-05-05 14:53 | 37.91648 | 40.19203 | 2484 ft | 162 kts | 162° |
| 2026-05-05 14:53 | 37.90518 | 40.19664 | 2291 ft | 160 kts | 166° |
| 2026-05-05 14:53 | 37.89509 | 40.20056 | 2232 ft | 115 kts | 163° |
| 2026-05-05 14:54 | 37.88979 | 40.20267 | 2219 ft | 39 kts | 162° |
| 2026-05-05 14:54 | 37.88826 | 40.20311 | 2215 ft | 13 kts | 220° |
| 2026-05-05 14:54 | 37.88789 | 40.20222 | 2216 ft | 7 kts | 252° |
| 2026-05-05 14:54 | 37.88776 | 40.20168 | 2217 ft | 5 kts | 252° |
| 2026-05-05 14:55 | 37.88768 | 40.20125 | 2218 ft | 4 kts | 283° |
| 2026-05-05 14:55 | 37.88783 | 40.20099 | 2218 ft | 4 kts | 323° |
| 2026-05-05 14:55 | 37.88831 | 40.20075 | 2220 ft | 10 kts | 341° |
| 2026-05-05 14:55 | 37.88919 | 40.20039 | 2222 ft | 16 kts | 342° |
| 2026-05-05 14:56 | 37.89050 | 40.19986 | 2226 ft | 22 kts | 341° |
| 2026-05-05 14:56 | 37.89209 | 40.19923 | 2230 ft | 22 kts | 341° |
| 2026-05-05 14:56 | 37.89350 | 40.19868 | 2234 ft | 19 kts | 344° |
| 2026-05-05 14:56 | 37.89472 | 40.19820 | 2237 ft | 17 kts | 342° |
| 2026-05-05 14:57 | 37.89593 | 40.19772 | 2241 ft | 19 kts | 343° |
| 2026-05-05 14:57 | 37.89729 | 40.19719 | 2245 ft | 22 kts | 341° |
| 2026-05-05 14:57 | 37.89884 | 40.19656 | 2248 ft | 23 kts | 343° |
| 2026-05-05 14:57 | 37.90029 | 40.19598 | 2253 ft | 20 kts | 342° |
| 2026-05-05 14:58 | 37.90159 | 40.19547 | 2255 ft | 17 kts | 341° |
| 2026-05-05 14:58 | 37.90270 | 40.19502 | 2256 ft | 15 kts | 345° |
| 2026-05-05 14:58 | 37.90303 | 40.19414 | 2258 ft | 11 kts | 253° |
| 2026-05-05 14:58 | 37.90282 | 40.19325 | 2260 ft | 10 kts | 254° |
| 2026-05-05 14:59 | 37.90257 | 40.19219 | 2264 ft | 15 kts | 252° |
| 2026-05-05 14:59 | 37.90218 | 40.19061 | 2265 ft | 22 kts | 252° |
| 2026-05-05 14:59 | 37.90174 | 40.18878 | 2266 ft | 21 kts | 253° |
| 2026-05-05 14:59 | 37.90144 | 40.18756 | 2266 ft | 10 kts | 242° |
| 2026-05-05 15:00 | 37.90103 | 40.18708 | 2265 ft | 5 kts | 249° |
| 2026-05-05 15:00 | 37.90095 | 40.18675 | 2265 ft | 5 kts | 253° |
| 2026-05-05 15:00 | 37.90084 | 40.18631 | 2265 ft | 0 kts | 251° |